NJE12G ESSB-LIRA
Flight info
| Callsign | NJE12G |
|---|---|
| Flight time | N/A |
| Altitude | 40000 |
| Route | INWIQ M996 APZER DCT KAL DCT TILAV L87 PESEL DCT POGAB Z36 PIKIB DCT RENKA DCT ARALD DCT LABIN DCT GITOD |
| Aircraft | CL60/M-SBDE1E2E3FGHIJ1J4J5J7M3RWXYZ/LB1V1D1 |
Departure
| Time | N/A |
|---|---|
| Airport | Stockholm-Bromma Airport (ESSB) |
Arrival
| Time | 2026-04-27 15:50 |
|---|---|
| Airport | Ciampino–G. B. Pastine International Airport (LIRA) |
| Time | Latitude | Longitude | Altitude | Speed | Heading |
|---|---|---|---|---|---|
| 2026-04-27 14:51 | 48.49204 | 13.49313 | 40180 ft | 494 kts | 189° |
| 2026-04-27 14:51 | 48.45764 | 13.48861 | 40181 ft | 494 kts | 189° |
| 2026-04-27 14:52 | 48.38925 | 13.47964 | 40180 ft | 494 kts | 189° |
| 2026-04-27 14:52 | 48.32076 | 13.47069 | 40181 ft | 494 kts | 189° |
| 2026-04-27 14:53 | 48.25182 | 13.46172 | 40179 ft | 495 kts | 189° |
| 2026-04-27 14:53 | 48.18306 | 13.45279 | 40174 ft | 495 kts | 189° |
| 2026-04-27 14:54 | 48.11461 | 13.44392 | 40164 ft | 495 kts | 189° |
| 2026-04-27 14:54 | 48.04601 | 13.43506 | 40168 ft | 494 kts | 189° |
| 2026-04-27 14:55 | 47.97705 | 13.42619 | 40168 ft | 494 kts | 189° |
| 2026-04-27 14:55 | 47.90854 | 13.41739 | 40175 ft | 494 kts | 189° |
| 2026-04-27 14:56 | 47.84023 | 13.40864 | 40184 ft | 494 kts | 189° |
| 2026-04-27 14:56 | 47.77140 | 13.39985 | 40187 ft | 494 kts | 188° |
| 2026-04-27 14:57 | 47.70264 | 13.39109 | 40214 ft | 494 kts | 188° |
| 2026-04-27 14:57 | 47.63397 | 13.38236 | 40076 ft | 498 kts | 188° |
| 2026-04-27 14:58 | 47.59923 | 13.37795 | 39855 ft | 499 kts | 188° |
| 2026-04-27 14:58 | 47.56480 | 13.37359 | 39577 ft | 498 kts | 188° |
| 2026-04-27 14:58 | 47.53032 | 13.36924 | 39227 ft | 496 kts | 188° |
| 2026-04-27 14:58 | 47.49609 | 13.36490 | 38790 ft | 496 kts | 188° |
| 2026-04-27 14:59 | 47.46188 | 13.36061 | 38730 ft | 485 kts | 188° |
| 2026-04-27 14:59 | 47.42814 | 13.35638 | 38844 ft | 481 kts | 188° |
| 2026-04-27 14:59 | 47.36163 | 13.34802 | 38963 ft | 480 kts | 188° |
| 2026-04-27 15:00 | 47.29521 | 13.33969 | 39240 ft | 474 kts | 188° |
| 2026-04-27 15:00 | 47.26252 | 13.33563 | 39706 ft | 464 kts | 188° |
| 2026-04-27 15:00 | 47.23060 | 13.33164 | 40015 ft | 459 kts | 188° |
| 2026-04-27 15:01 | 47.19882 | 13.32768 | 40287 ft | 455 kts | 188° |
| 2026-04-27 15:01 | 47.16726 | 13.32374 | 40527 ft | 456 kts | 188° |
| 2026-04-27 15:01 | 47.13530 | 13.31972 | 40297 ft | 467 kts | 188° |
| 2026-04-27 15:01 | 47.10234 | 13.31558 | 40068 ft | 478 kts | 187° |
| 2026-04-27 15:02 | 47.06875 | 13.31138 | 39822 ft | 488 kts | 187° |
| 2026-04-27 15:02 | 47.03426 | 13.30709 | 39548 ft | 494 kts | 187° |
| 2026-04-27 15:02 | 47.00007 | 13.30285 | 39261 ft | 495 kts | 187° |
| 2026-04-27 15:02 | 46.96606 | 13.29867 | 39473 ft | 479 kts | 187° |
| 2026-04-27 15:03 | 46.93371 | 13.29473 | 40213 ft | 459 kts | 187° |
| 2026-04-27 15:03 | 46.90190 | 13.29082 | 40479 ft | 457 kts | 187° |
| 2026-04-27 15:03 | 46.87125 | 13.28701 | 40305 ft | 466 kts | 187° |
| 2026-04-27 15:03 | 46.83844 | 13.28295 | 40204 ft | 472 kts | 187° |
| 2026-04-27 15:04 | 46.77191 | 13.27474 | 40093 ft | 482 kts | 187° |
| 2026-04-27 15:04 | 46.70478 | 13.26650 | 40082 ft | 488 kts | 187° |
| 2026-04-27 15:05 | 46.63632 | 13.25888 | 40092 ft | 493 kts | 186° |
| 2026-04-27 15:05 | 46.56759 | 13.25175 | 40113 ft | 494 kts | 186° |
| 2026-04-27 15:06 | 46.49883 | 13.24463 | 40136 ft | 493 kts | 186° |
| 2026-04-27 15:06 | 46.43036 | 13.23755 | 40121 ft | 493 kts | 186° |
| 2026-04-27 15:07 | 46.36175 | 13.23047 | 40090 ft | 492 kts | 186° |
| 2026-04-27 15:07 | 46.29322 | 13.22341 | 40080 ft | 492 kts | 186° |
| 2026-04-27 15:08 | 46.22451 | 13.21635 | 40041 ft | 492 kts | 186° |
| 2026-04-27 15:08 | 46.15622 | 13.20935 | 40078 ft | 490 kts | 186° |
| 2026-04-27 15:09 | 46.08780 | 13.20235 | 40068 ft | 492 kts | 186° |
| 2026-04-27 15:09 | 46.01898 | 13.19532 | 40069 ft | 492 kts | 186° |
| 2026-04-27 15:10 | 45.95058 | 13.18836 | 40072 ft | 491 kts | 186° |
| 2026-04-27 15:10 | 45.88230 | 13.18142 | 40072 ft | 491 kts | 186° |
| 2026-04-27 15:11 | 45.81379 | 13.17448 | 40073 ft | 491 kts | 186° |
| 2026-04-27 15:11 | 45.74543 | 13.16757 | 40068 ft | 491 kts | 186° |
| 2026-04-27 15:12 | 45.67746 | 13.16071 | 40068 ft | 490 kts | 186° |
| 2026-04-27 15:12 | 45.60948 | 13.15387 | 40071 ft | 490 kts | 186° |
| 2026-04-27 15:13 | 45.54118 | 13.14702 | 40073 ft | 490 kts | 186° |
| 2026-04-27 15:13 | 45.47310 | 13.14020 | 40075 ft | 490 kts | 186° |
| 2026-04-27 15:14 | 45.40526 | 13.13343 | 40077 ft | 490 kts | 186° |
| 2026-04-27 15:14 | 45.33746 | 13.12667 | 40077 ft | 490 kts | 186° |
| 2026-04-27 15:15 | 45.26936 | 13.11989 | 40082 ft | 490 kts | 186° |
| 2026-04-27 15:15 | 45.20086 | 13.11310 | 40073 ft | 491 kts | 186° |
| 2026-04-27 15:16 | 45.13293 | 13.10638 | 40067 ft | 490 kts | 186° |
| 2026-04-27 15:16 | 45.06475 | 13.09965 | 40074 ft | 490 kts | 186° |
| 2026-04-27 15:17 | 44.99682 | 13.09250 | 40075 ft | 489 kts | 189° |
| 2026-04-27 15:17 | 44.93111 | 13.07160 | 40072 ft | 486 kts | 197° |
| 2026-04-27 15:18 | 44.86533 | 13.04724 | 40078 ft | 486 kts | 197° |
| 2026-04-27 15:18 | 44.79969 | 13.02301 | 40077 ft | 486 kts | 197° |
| 2026-04-27 15:19 | 44.73423 | 12.99890 | 40081 ft | 486 kts | 197° |
| 2026-04-27 15:19 | 44.66896 | 12.97492 | 40076 ft | 486 kts | 197° |
| 2026-04-27 15:20 | 44.60344 | 12.95091 | 40075 ft | 486 kts | 197° |
| 2026-04-27 15:20 | 44.53756 | 12.92681 | 40076 ft | 486 kts | 197° |
| 2026-04-27 15:21 | 44.47229 | 12.90300 | 40076 ft | 486 kts | 197° |
| 2026-04-27 15:21 | 44.40696 | 12.87922 | 40076 ft | 486 kts | 197° |
| 2026-04-27 15:22 | 44.34138 | 12.85539 | 40076 ft | 486 kts | 197° |
| 2026-04-27 15:22 | 44.27579 | 12.83163 | 40076 ft | 486 kts | 197° |
| 2026-04-27 15:23 | 44.21021 | 12.80792 | 40082 ft | 486 kts | 197° |
| 2026-04-27 15:23 | 44.14477 | 12.78431 | 40081 ft | 486 kts | 197° |
| 2026-04-27 15:24 | 44.07905 | 12.76066 | 40075 ft | 486 kts | 197° |
| 2026-04-27 15:24 | 44.01319 | 12.73701 | 40076 ft | 486 kts | 197° |
| 2026-04-27 15:25 | 43.94767 | 12.71354 | 40079 ft | 485 kts | 197° |
| 2026-04-27 15:25 | 43.91507 | 12.70190 | 40075 ft | 474 kts | 197° |
| 2026-04-27 15:25 | 43.88328 | 12.69056 | 39753 ft | 469 kts | 197° |
| 2026-04-27 15:26 | 43.85159 | 12.67926 | 39296 ft | 464 kts | 197° |
| 2026-04-27 15:26 | 43.82034 | 12.66813 | 38839 ft | 459 kts | 197° |
| 2026-04-27 15:26 | 43.78937 | 12.65711 | 38354 ft | 456 kts | 197° |
| 2026-04-27 15:26 | 43.75879 | 12.64623 | 37859 ft | 453 kts | 197° |
| 2026-04-27 15:27 | 43.72860 | 12.63551 | 37335 ft | 450 kts | 197° |
| 2026-04-27 15:27 | 43.69823 | 12.62472 | 36757 ft | 448 kts | 197° |
| 2026-04-27 15:27 | 43.66814 | 12.61405 | 36189 ft | 445 kts | 197° |
| 2026-04-27 15:27 | 43.63796 | 12.60336 | 35616 ft | 443 kts | 197° |
| 2026-04-27 15:28 | 43.60838 | 12.59289 | 35045 ft | 440 kts | 197° |
| 2026-04-27 15:28 | 43.57886 | 12.58246 | 34464 ft | 438 kts | 197° |
| 2026-04-27 15:28 | 43.54926 | 12.57201 | 33880 ft | 435 kts | 197° |
| 2026-04-27 15:28 | 43.51996 | 12.56167 | 33339 ft | 431 kts | 197° |
| 2026-04-27 15:29 | 43.49095 | 12.55145 | 32784 ft | 427 kts | 197° |
| 2026-04-27 15:29 | 43.46259 | 12.54147 | 32292 ft | 419 kts | 197° |
| 2026-04-27 15:29 | 43.43435 | 12.53154 | 31799 ft | 413 kts | 197° |
| 2026-04-27 15:29 | 43.40681 | 12.52187 | 31311 ft | 407 kts | 197° |
| 2026-04-27 15:30 | 43.37934 | 12.51223 | 30841 ft | 401 kts | 197° |
| 2026-04-27 15:30 | 43.35249 | 12.50280 | 30372 ft | 397 kts | 197° |
| 2026-04-27 15:30 | 43.32578 | 12.49341 | 29909 ft | 397 kts | 197° |
| 2026-04-27 15:30 | 43.29916 | 12.48408 | 29436 ft | 396 kts | 197° |
| 2026-04-27 15:31 | 43.27247 | 12.47474 | 28952 ft | 394 kts | 197° |
| 2026-04-27 15:31 | 43.24604 | 12.46551 | 28478 ft | 390 kts | 197° |
| 2026-04-27 15:31 | 43.21972 | 12.45631 | 28011 ft | 388 kts | 197° |
| 2026-04-27 15:31 | 43.19346 | 12.44715 | 27560 ft | 385 kts | 197° |
| 2026-04-27 15:32 | 43.16782 | 12.43821 | 27136 ft | 382 kts | 197° |
| 2026-04-27 15:32 | 43.14178 | 12.42914 | 26678 ft | 380 kts | 197° |
| 2026-04-27 15:32 | 43.11628 | 12.42027 | 26216 ft | 377 kts | 197° |
| 2026-04-27 15:32 | 43.09096 | 12.41147 | 25773 ft | 374 kts | 197° |
| 2026-04-27 15:33 | 43.06573 | 12.40270 | 25309 ft | 371 kts | 197° |
| 2026-04-27 15:33 | 43.04055 | 12.39396 | 24861 ft | 368 kts | 197° |
| 2026-04-27 15:33 | 43.01596 | 12.38542 | 24426 ft | 365 kts | 197° |
| 2026-04-27 15:33 | 42.99111 | 12.37681 | 23983 ft | 363 kts | 197° |
| 2026-04-27 15:34 | 42.96683 | 12.36840 | 23557 ft | 361 kts | 197° |
| 2026-04-27 15:34 | 42.94217 | 12.35986 | 23119 ft | 358 kts | 197° |
| 2026-04-27 15:34 | 42.91810 | 12.35153 | 22686 ft | 355 kts | 197° |
| 2026-04-27 15:34 | 42.89414 | 12.34326 | 22264 ft | 353 kts | 196° |
| 2026-04-27 15:35 | 42.87053 | 12.33511 | 21854 ft | 351 kts | 196° |
| 2026-04-27 15:35 | 42.84657 | 12.32684 | 21415 ft | 349 kts | 196° |
| 2026-04-27 15:35 | 42.82302 | 12.31955 | 21003 ft | 347 kts | 189° |
| 2026-04-27 15:35 | 42.79864 | 12.32041 | 20571 ft | 347 kts | 173° |
| 2026-04-27 15:36 | 42.77504 | 12.32541 | 20161 ft | 345 kts | 173° |
| 2026-04-27 15:36 | 42.75122 | 12.33036 | 19652 ft | 348 kts | 173° |
| 2026-04-27 15:36 | 42.72673 | 12.33541 | 18682 ft | 361 kts | 173° |
| 2026-04-27 15:36 | 42.70159 | 12.34058 | 17820 ft | 367 kts | 173° |
| 2026-04-27 15:37 | 42.67637 | 12.34578 | 17079 ft | 365 kts | 173° |
| 2026-04-27 15:37 | 42.65138 | 12.35092 | 16308 ft | 361 kts | 173° |
| 2026-04-27 15:37 | 42.62677 | 12.35596 | 15530 ft | 358 kts | 173° |
| 2026-04-27 15:37 | 42.60239 | 12.36096 | 14770 ft | 354 kts | 173° |
| 2026-04-27 15:38 | 42.57808 | 12.36594 | 14084 ft | 347 kts | 173° |
| 2026-04-27 15:38 | 42.55434 | 12.37079 | 13638 ft | 343 kts | 173° |
| 2026-04-27 15:38 | 42.53062 | 12.37562 | 13198 ft | 343 kts | 172° |
| 2026-04-27 15:38 | 42.50709 | 12.38042 | 12811 ft | 333 kts | 172° |
| 2026-04-27 15:39 | 42.48477 | 12.38496 | 12426 ft | 320 kts | 172° |
| 2026-04-27 15:39 | 42.46299 | 12.38938 | 12052 ft | 309 kts | 172° |
| 2026-04-27 15:39 | 42.44206 | 12.39364 | 11690 ft | 299 kts | 172° |
| 2026-04-27 15:39 | 42.42182 | 12.39774 | 11346 ft | 294 kts | 172° |
| 2026-04-27 15:40 | 42.40130 | 12.40190 | 10982 ft | 294 kts | 172° |
| 2026-04-27 15:40 | 42.38108 | 12.40598 | 10640 ft | 293 kts | 172° |
| 2026-04-27 15:40 | 42.36108 | 12.41002 | 10287 ft | 291 kts | 171° |
| 2026-04-27 15:40 | 42.34087 | 12.41410 | 9941 ft | 289 kts | 171° |
| 2026-04-27 15:41 | 42.32079 | 12.41814 | 9451 ft | 289 kts | 171° |
| 2026-04-27 15:41 | 42.30143 | 12.42204 | 9173 ft | 283 kts | 171° |
| 2026-04-27 15:41 | 42.28206 | 12.42594 | 8831 ft | 284 kts | 172° |
| 2026-04-27 15:41 | 42.26222 | 12.42993 | 8495 ft | 283 kts | 171° |
| 2026-04-27 15:42 | 42.24283 | 12.43384 | 8153 ft | 281 kts | 171° |
| 2026-04-27 15:42 | 42.22345 | 12.43774 | 7815 ft | 280 kts | 171° |
| 2026-04-27 15:42 | 42.20401 | 12.44165 | 7499 ft | 280 kts | 171° |
| 2026-04-27 15:42 | 42.18476 | 12.44552 | 7133 ft | 280 kts | 171° |
| 2026-04-27 15:43 | 42.16567 | 12.44936 | 6791 ft | 272 kts | 172° |
| 2026-04-27 15:43 | 42.14719 | 12.45307 | 6479 ft | 262 kts | 172° |
| 2026-04-27 15:43 | 42.12950 | 12.45663 | 6177 ft | 254 kts | 172° |
| 2026-04-27 15:43 | 42.11225 | 12.46009 | 5880 ft | 246 kts | 172° |
| 2026-04-27 15:44 | 42.09560 | 12.46342 | 5592 ft | 238 kts | 172° |
| 2026-04-27 15:44 | 42.07928 | 12.46669 | 5311 ft | 231 kts | 172° |
| 2026-04-27 15:44 | 42.06380 | 12.46977 | 5054 ft | 225 kts | 172° |
| 2026-04-27 15:44 | 42.04839 | 12.47285 | 4805 ft | 218 kts | 172° |
| 2026-04-27 15:45 | 42.03360 | 12.47581 | 4562 ft | 212 kts | 172° |
| 2026-04-27 15:45 | 42.01912 | 12.47870 | 4315 ft | 206 kts | 172° |
| 2026-04-27 15:45 | 42.00559 | 12.48141 | 4120 ft | 197 kts | 172° |
| 2026-04-27 15:45 | 41.99202 | 12.48412 | 3909 ft | 190 kts | 172° |
| 2026-04-27 15:46 | 41.97907 | 12.48669 | 3682 ft | 190 kts | 172° |
| 2026-04-27 15:46 | 41.96625 | 12.48924 | 3543 ft | 189 kts | 172° |
| 2026-04-27 15:46 | 41.95316 | 12.49188 | 3406 ft | 190 kts | 171° |
| 2026-04-27 15:46 | 41.94029 | 12.49687 | 3173 ft | 192 kts | 158° |
| 2026-04-27 15:47 | 41.92843 | 12.50482 | 2939 ft | 192 kts | 152° |
| 2026-04-27 15:47 | 41.91672 | 12.51342 | 2706 ft | 190 kts | 152° |
| 2026-04-27 15:47 | 41.90506 | 12.52173 | 2459 ft | 191 kts | 153° |
| 2026-04-27 15:47 | 41.89400 | 12.52943 | 2217 ft | 178 kts | 153° |
| 2026-04-27 15:48 | 41.88390 | 12.53645 | 2052 ft | 148 kts | 154° |
| 2026-04-27 15:48 | 41.87524 | 12.54244 | 1858 ft | 138 kts | 154° |
| 2026-04-27 15:48 | 41.86675 | 12.54829 | 1641 ft | 132 kts | 154° |
| 2026-04-27 15:49 | 41.85059 | 12.55942 | 1303 ft | 130 kts | 154° |
| 2026-04-27 15:49 | 41.84250 | 12.56518 | 1139 ft | 133 kts | 154° |
| 2026-04-27 15:49 | 41.83434 | 12.57099 | 979 ft | 133 kts | 155° |
| 2026-04-27 15:49 | 41.82597 | 12.57641 | 789 ft | 133 kts | 157° |
| 2026-04-27 15:50 | 41.81782 | 12.58211 | 609 ft | 131 kts | 154° |
| 2026-04-27 15:50 | 41.80975 | 12.58770 | 439 ft | 128 kts | 156° |
| 2026-04-27 15:50 | 41.80227 | 12.59293 | 390 ft | 108 kts | 153° |
| 2026-04-27 15:50 | 41.79684 | 12.59660 | 417 ft | 48 kts | 156° |
| 2026-04-27 15:51 | 41.79410 | 12.59845 | 429 ft | 29 kts | 151° |
| 2026-04-27 15:51 | 41.79302 | 12.59920 | 433 ft | 12 kts | 152° |
| 2026-04-27 15:51 | 41.79218 | 12.59978 | 437 ft | 14 kts | 152° |
| 2026-04-27 15:51 | 41.79123 | 12.60042 | 440 ft | 16 kts | 153° |
| 2026-04-27 15:52 | 41.79052 | 12.60041 | 441 ft | 8 kts | 248° |
| 2026-04-27 15:52 | 41.79028 | 12.59962 | 439 ft | 10 kts | 248° |
| 2026-04-27 15:52 | 41.79055 | 12.59885 | 438 ft | 12 kts | 334° |
| 2026-04-27 15:52 | 41.79132 | 12.59835 | 435 ft | 12 kts | 331° |
| 2026-04-27 15:53 | 41.79209 | 12.59775 | 432 ft | 12 kts | 331° |
| 2026-04-27 15:53 | 41.79285 | 12.59715 | 429 ft | 12 kts | 331° |
| 2026-04-27 15:53 | 41.79361 | 12.59668 | 427 ft | 12 kts | 332° |
| 2026-04-27 15:53 | 41.79418 | 12.59631 | 424 ft | 4 kts | 338° |
| 2026-04-27 15:54 | 41.79456 | 12.59611 | 422 ft | 6 kts | 336° |
| 2026-04-27 15:54 | 41.79505 | 12.59578 | 420 ft | 8 kts | 330° |
| 2026-04-27 15:54 | 41.79560 | 12.59541 | 418 ft | 8 kts | 334° |
| 2026-04-27 15:54 | 41.79615 | 12.59501 | 416 ft | 9 kts | 331° |
| 2026-04-27 15:55 | 41.79678 | 12.59458 | 413 ft | 11 kts | 334° |
| 2026-04-27 15:55 | 41.79774 | 12.59394 | 407 ft | 16 kts | 333° |
| 2026-04-27 15:55 | 41.79814 | 12.59345 | 405 ft | 8 kts | 257° |
| 2026-04-27 15:55 | 41.79781 | 12.59304 | 405 ft | 3 kts | 212° |
| 2026-04-27 15:56 | 41.79780 | 12.59282 | 405 ft | 2 kts | 290° |
| 2026-04-27 15:56 | 41.79788 | 12.59253 | 404 ft | 0 kts | 307° |
| 2026-04-27 15:56 | 41.79789 | 12.59252 | 404 ft | 0 kts | 309° |